Huvudsida
METAR-TAF:

METAR-TAF

Flygplatser :

Santa Maria di Leuca

Castrignano del Capo, Italien

latitud: 39-49N, longitud: 018-21E, höjd: 104 m

Aktuellt väderrapport

Denna rapport gjordes för 4 timmar och 41 minuter sedan, klockan 17:55 UTC
Vind 11 kt från syd
Temperatur 18°C
Fuktighet 83%
Tryck 1014 hPa
Sikt 10 km eller mer
Brutna moln på en höjd av 2000 ft

METAR: LIBY 151755Z 17011KT 9999 BKN020 18/15 Q1014 RMK BKN SCT070 QUK / QUL / VIS MAR 10 KM VIS MIN 9999

Tid: 23:36 (22:36 UTC)


TAF: saknas

Aktuella väderrapporter och prognoser från 4000 flygplatser (METAR- och TAF-rapporter).

De tillgängliga stationerna syns som gula och röda prickar på kartan.

För musen över prickarna för att se namnen på stationerna.

Klicka sedan för att få väderrapporter och prognoser.

För att ändra kartan: Klicka på de gröna knapparna med ett svart kors på för att zooma in; den gröna knappen med ett streck på för att zooma ut; eller på de gröna pilarna för angränsande kartor.


METAR-TAF: